Latest Coastal Weather Observations for Cape Nelson

IDV60701

Issued at 1:41 am EST Monday 27 April 2015 (issued every 10 minutes, with the page automatically refreshed every 10 minutes)

About coastal observations | Map of coastal stations | Coastal observations for VIC | Marine services | Other Formats
Station Details ID: 090184 Name: CAPE NELSON LIGHTHOUSE Lat: -38.43 Lon: 141.54 Height: 45.4 m
Data from the previous 72 hours. | See also: Recent months at Cape Nelson
Date/Time
EST
Temp

°C
Wind Pressure Rain
since 9am
mm
Weather Cloud Vis
km
Sea
Height
m
Swell
Dir
 
Speed
knots
Gust
knots
hPa Trend Height
m
Period
s
Dir
27/01:30am 12.7 S 10 18 1022.7 - 0.4 - - - - - - -
27/01:00am 12.8 NE 9 14 1022.6 - 0.4 - - - - - - -
27/12:30am 12.4 SE 10 17 1022.6 - 0.4 - - - - - - -
27/12:00am 12.1 N 9 14 1022.8 - 0.4 - - - - - - -
 
Date/Time
EST
Temp

°C
Wind Pressure Rain
since 9am
mm
Weather Cloud Vis
km
Sea
Height
m
Swell
Dir
 
Speed
knots
Gust
knots
hPa Trend Height
m
Period
s
Dir
26/11:30pm 11.8 ENE 7 12 1022.8 - 0.4 - - - - - - -
26/11:00pm 11.6 NE 9 14 1022.8 - 0.4 - - - - - - -
26/10:30pm 12.1 NNW 8 12 1022.9 - 0.0 - - - - - - -
26/10:00pm 12.6 NNE 10 16 1022.8 - 0.0 - - - - - - -
26/09:30pm 12.7 WNW 14 24 1022.9 - 0.0 - - - - - - -
26/09:00pm 13.1 NNW 10 17 1022.8 - 0.0 - - - - - - -
26/08:30pm 12.8 ESE 11 23 1022.5 - 0.0 - - - - - - -
26/08:00pm 13.0 NW 9 14 1022.5 - 0.0 - - - - - - -
26/07:30pm 12.7 NNE 9 17 1022.5 - 0.0 - - - - - - -
26/07:00pm 13.0 E 10 19 1022.5 - 0.0 - - - - - - -
26/06:30pm 12.6 NE 9 15 1022.1 - 0.0 - - - - - - -
26/06:00pm 12.3 N 9 15 1022.0 - 0.0 - - - - - - -
26/05:30pm 12.6 NE 9 13 1021.8 - 0.0 - - - - - - -
26/05:00pm 12.9 NNW 10 18 1021.7 - 0.0 - - - - - - -
26/04:30pm 13.3 NW 11 17 1021.5 - 0.0 - - - - - - -
26/04:00pm 13.4 N 9 19 1021.5 - 0.0 - - - - - - -
26/03:30pm 13.3 NW 11 17 1021.4 - 0.0 - - - - - - -
26/03:00pm 13.4 NNE 9 15 1021.2 - 0.0 - - - - - - -
26/02:30pm 12.8 ESE 10 18 1021.2 - 0.0 - - - - - - -
26/02:00pm 13.0 SSE 10 18 1021.2 - 0.0 - - - - - - -
26/01:30pm 13.0 NNW 9 17 1021.1 - 0.0 - - - - - - -
26/01:00pm 13.6 NNE 9 18 1021.0 - 0.0 - - - - - - -
26/12:30pm 12.9 NNE 9 15 1021.1 - 0.0 - - - - - - -
26/12:00pm 12.4 NE 11 20 1021.4 - 0.0 - - - - - - -
26/11:30am 12.7 NNW 9 18 1021.5 - 0.0 - - - - - - -
26/11:00am 12.6 N 10 15 1021.7 - 0.0 - - - - - - -
26/10:30am 12.5 ENE 10 17 1021.2 - 0.0 - - - - - - -
26/10:00am 12.3 S 11 19 1021.5 - 0.0 - - - - - - -
26/09:30am 11.8 S 16 22 1021.5 - 0.0 - - - - - - -
26/09:00am 11.7 ENE 11 18 1021.0 - 6.4 Recent precip. - - - - - -
26/08:30am 11.0 ENE 9 17 1020.9 - 6.4 - - - - - - -
26/08:00am 10.7 SE 11 22 1020.7 - 6.2 - - - - - - -
26/07:35am 11.4 S 15 31 1020.3 - 6.0 - - - - - - -
26/07:30am 11.3 S 13 19 1020.3 - 6.0 - - - - - - -
26/07:00am 12.1 SSE 11 20 1019.7 - 5.6 - - - - - - -
26/06:30am 11.9 SSE 10 17 1019.5 - 5.6 - - - - - - -
26/06:00am 11.5 S 12 19 1019.3 - 5.6 - - - - - - -
26/05:30am 11.6 S 16 21 1019.4 - 5.6 - - - - - - -
26/05:00am 10.8 S 11 18 1019.3 - 5.6 - - - - - - -
26/04:30am 11.0 S 16 21 1019.2 - 5.6 - - - - - - -
26/04:17am 11.3 SSE 13 26 1018.8 - 5.4 - - - - - - -
26/04:13am 11.6 SE 10 24 1018.9 - 5.4 - - - - - - -
26/04:00am 11.0 SE 9 17 1018.7 - 5.4 - - - - - - -
26/03:30am 12.1 S 12 20 1018.8 - 5.2 - - - - - - -
26/03:00am 11.7 S 12 19 1018.8 - 5.2 - - - - - - -
26/02:35am 12.1 S 16 28 1018.8 - 5.2 - - - - - - -
26/02:30am 12.1 S 14 21 1018.7 - 5.2 - - - - - - -
26/02:00am 12.3 S 15 21 1018.5 - 5.2 - - - - - - -
26/01:30am 12.4 S 16 22 1018.5 - 5.2 - - - - - - -
26/01:00am 12.0 SSE 9 18 1018.3 - 5.2 - - - - - - -
26/12:30am 12.1 S 16 23 1018.4 - 5.2 - - - - - - -
26/12:00am 11.7 S 16 22 1018.2 - 5.2 - - - - - - -
 
Date/Time
EST
Temp

°C
Wind Pressure Rain
since 9am
mm
Weather Cloud Vis
km
Sea
Height
m
Swell
Dir
 
Speed
knots
Gust
knots
hPa Trend Height
m
Period
s
Dir
25/11:30pm 12.0 S 15 21 1018.3 - 5.2 - - - - - - -
25/11:00pm 12.0 S 15 23 1018.2 - 5.2 - - - - - - -
25/10:30pm 12.0 S 15 22 1018.2 - 5.2 - - - - - - -
25/10:00pm 11.3 S 21 27 1018.3 - 5.2 - - - - - - -
25/09:30pm 11.9 S 15 21 1017.9 - 5.2 - - - - - - -
25/09:00pm 12.1 S 17 23 1017.7 - 5.2 - - - - - - -
25/08:30pm 12.2 S 14 23 1017.4 - 5.2 - - - - - - -
25/08:00pm 12.5 S 16 22 1017.1 - 5.2 - - - - - - -
25/07:30pm 12.4 S 18 23 1016.8 - 5.2 - - - - - - -
25/07:00pm 12.7 S 15 21 1016.6 - 5.2 - - - - - - -
25/06:30pm 12.6 S 15 22 1016.1 - 5.2 - - - - - - -
25/06:00pm 12.7 S 16 24 1015.4 - 5.2 - - - - - - -
25/05:30pm 12.7 S 16 23 1015.0 - 5.2 - - - - - - -
25/05:00pm 12.9 S 20 26 1014.5 - 5.2 - - - - - - -
25/04:30pm 13.0 S 22 27 1014.2 - 5.2 - - - - - - -
25/04:00pm 13.1 S 21 27 1013.8 - 5.2 - - - - - - -
25/03:30pm 12.8 S 23 29 1013.4 - 5.2 - - - - - - -
25/03:00pm 12.5 SSE 21 28 1013.1 - 5.2 Rain - - - - - -
25/02:30pm 14.0 SSE 19 24 1012.6 - 4.8 - - - - - - -
25/02:00pm 14.0 SSE 20 26 1012.3 - 4.8 - - - - - - -
25/01:30pm 13.9 SSE 20 25 1012.1 - 4.8 - - - - - - -
25/01:00pm 14.2 SSE 20 25 1011.7 - 4.8 - - - - - - -
25/12:30pm 14.3 SSE 19 25 1011.7 - 4.8 - - - - - - -
25/12:00pm 14.0 SE 19 26 1011.5 - 4.8 Recent precip. - - - - - -
25/11:30am 13.5 SE 19 26 1011.3 - 4.8 - - - - - - -
25/11:00am 13.0 SSE 21 28 1011.0 - 4.6 - - - - - - -
25/10:30am 13.0 SSE 18 24 1010.7 - 4.0 - - - - - - -
25/10:19am 13.2 SSE 16 26 1010.5 - 2.0 - - - - - - -
25/10:00am 12.8 S 14 18 1010.3 - 0.6 - - - - - - -
25/09:30am 13.4 S 13 18 1010.1 - 0.4 - - - - - - -
25/09:00am 13.3 S 11 15 1009.8 - 7.6 Recent precip. - - - - - -
25/08:30am 13.4 S 7 11 1009.4 - 7.4 - - - - - - -
25/08:00am 13.2 SE 6 9 1008.9 - 7.4 - - - - - - -
25/07:30am 13.0 NE 5 9 1008.5 - 7.4 - - - - - - -
25/07:00am 12.7 ENE 7 11 1008.0 - 7.4 - - - - - - -
25/06:30am 12.5 NNE 7 12 1007.6 - 7.4 - - - - - - -
25/06:00am 12.3 NNE 8 15 1007.2 - 7.4 - - - - - - -
25/05:30am 11.8 N 6 10 1007.3 - 7.4 - - - - - - -
25/05:00am 11.2 NW 7 9 1007.1 - 7.4 - - - - - - -
25/04:30am 11.0 NW 8 10 1006.9 - 7.4 - - - - - - -
25/04:00am 10.7 NW 9 11 1006.7 - 7.4 - - - - - - -
25/03:30am 10.6 NW 9 12 1006.6 - 7.4 - - - - - - -
25/03:00am 10.5 NNW 8 11 1006.6 - 7.4 - - - - - - -
25/02:30am 10.7 NW 9 12 1006.5 - 7.4 - - - - - - -
25/02:00am 10.4 NW 7 11 1006.4 - 7.4 - - - - - - -
25/01:30am 10.3 NW 8 11 1006.4 - 7.4 - - - - - - -
25/01:00am 10.1 NNW 6 7 1006.4 - 7.4 - - - - - - -
25/12:30am 10.1 NNW 7 8 1006.2 - 7.4 - - - - - - -
25/12:00am 10.3 NNW 7 9 1006.2 - 7.4 - - - - - - -
 
Date/Time
EST
Temp

°C
Wind Pressure Rain
since 9am
mm
Weather Cloud Vis
km
Sea
Height
m
Swell
Dir
 
Speed
knots
Gust
knots
hPa Trend Height
m
Period
s
Dir
24/11:30pm 10.6 NNW 6 8 1006.2 - 7.4 - - - - - - -
24/11:00pm 11.1 NW 8 11 1006.0 - 7.4 - - - - - - -
24/10:30pm 11.9 WNW 10 16 1005.9 - 7.4 - - - - - - -
24/10:00pm 12.2 W 12 16 1005.8 - 7.4 - - - - - - -
24/09:30pm 11.4 WNW 11 15 1005.8 - 7.4 - - - - - - -
24/09:00pm 11.4 NW 9 13 1005.6 - 7.4 - - - - - - -
24/08:30pm 11.7 NW 11 15 1005.5 - 7.4 - - - - - - -
24/08:00pm 12.1 NW 8 11 1005.5 - 7.4 - - - - - - -
24/07:30pm 12.6 WNW 10 13 1005.3 - 7.4 - - - - - - -
24/07:00pm 12.9 W 10 14 1004.7 - 7.4 - - - - - - -
24/06:30pm 12.6 W 10 13 1004.4 - 7.4 - - - - - - -
24/06:00pm 12.4 WNW 13 20 1004.4 - 7.4 - - - - - - -
24/05:30pm 12.6 WNW 16 21 1004.0 - 7.4 - - - - - - -
24/05:00pm 12.0 WNW 18 24 1003.5 - 7.4 - - - - - - -
24/04:30pm 12.0 WNW 23 33 1003.1 - 5.8 - - - - - - -
24/04:15pm 13.5 NW 16 28 1003.0 - 4.2 - - - - - - -
24/04:12pm 13.4 NNW 15 28 1003.0 - 4.0 - - - - - - -
24/04:00pm 14.7 NE 1 12 1002.6 - 2.0 - - - - - - -
24/03:30pm 14.9 E 5 6 1002.3 - 1.0 - - - - - - -
24/03:00pm 15.1 E 8 10 1002.0 - 0.0 - - - - - - -
24/02:30pm 16.0 ESE 4 6 1002.2 - 0.0 - - - - - - -
24/02:00pm 16.2 S 4 5 1002.4 - 0.0 - - - - - - -
24/01:30pm 15.5 W 4 5 1003.0 - 0.0 - - - - - - -
24/01:00pm 15.5 W 5 7 1003.4 - 0.0 - - - - - - -
24/12:30pm 16.0 WNW 6 8 1003.7 - 0.0 - - - - - - -
24/12:00pm 15.7 NW 8 11 1004.2 - 0.0 - - - - - - -
24/11:30am 15.2 WNW 8 11 1004.4 - 0.0 - - - - - - -
24/11:00am 15.0 WNW 8 11 1004.7 - 0.0 - - - - - - -
24/10:30am 14.4 WNW 7 10 1004.6 - 0.0 - - - - - - -
24/10:00am 14.1 WNW 10 14 1004.9 - 0.0 - - - - - - -
24/09:30am 13.9 WNW 11 15 1005.1 - 0.0 - - - - - - -
24/09:00am 14.4 WNW 6 9 1005.4 - 4.6 Recent precip. - - - - - -
24/08:30am 13.8 WNW 1 5 1005.5 - 4.4 - - - - - - -
24/08:00am 13.9 NW 2 5 1005.4 - 2.6 - - - - - - -
24/07:30am 13.7 W 3 5 1005.3 - 2.6 - - - - - - -
24/07:00am 13.6 W 7 10 1005.3 - 2.6 - - - - - - -
24/06:30am 14.1 WNW 6 9 1005.5 - 1.8 - - - - - - -
24/06:00am 14.2 CALM 0 0 1005.6 - 0.4 Recent precip. - - - - - -
24/05:30am 14.3 NNW 4 6 1005.6 - 0.4 - - - - - - -
24/05:00am 14.2 CALM 0 0 1005.7 - 0.0 - - - - - - -
24/04:30am 14.2 CALM 0 0 1005.8 - 0.0 - - - - - - -
24/04:00am 14.4 CALM 0 0 1005.9 - 0.0 - - - - - - -
24/03:30am 14.5 CALM 0 0 1006.4 - 0.0 - - - - - - -
24/03:00am 14.4 CALM 0 0 1006.9 - 0.0 - - - - - - -
24/02:30am 14.7 NE 2 5 1007.1 - 0.0 - - - - - - -
24/02:00am 14.8 ENE 4 5 1007.7 - 0.0 - - - - - - -

Other Formats:

Comma delimited format used in spreadsheet applications
http://www.bom.gov.au/fwo/IDV60701/IDV60701.94826.axf

JavaScript Object Notation format (JSON) in row-major order
http://www.bom.gov.au/fwo/IDV60701/IDV60701.94826.json